Portada
METAR-TAF:

METAR-TAF

Aeropuertos :

Bella Coola, Columbia Británica, Canadá

latitud: 52-23N, longitud: 126-35W, altitud: 35 m

Observación

El informe se hizo hace 5 horas y 26 minutos, a las 01:00 UTC
Viento 16 kt del oeste con ráfagas de 23 kt
Temperatura 19°C
Humedad 49%
Presión 1020 hPa
Visibilidad: 24.1 km
Nubes dispersas a una altura de 5400 ft, Cumulus congestus.
Cielo nuboso a una altura de 8300 ft
Cielo nuboso a una altura de 10000 ft
chaparrones en las proximidades

METAR: CYBD 200100Z 27016G23KT 15SM VCSH SCT054TCU BKN083 BKN100 19/08 A3013 RMK TCU3AC2AC1 LAST STFD OBS/NEXT 201300 UTC SLP204 DENSITY ALT 400FT

Hora: 23:26 (06:26 UTC)


TAF: falta

Observaciones y pronósticos meteorológicos de más de 4000 aeropuertos (mensajes METAR y TAF).

Los puntos amarillos y rojos representan las estaciones disponibles.

Ponga el ratón en el punto deseado para ver el nombre de la estación.

Haga clic para ver las observaciones y los pronósticos meteorológicos.

Para cambiar el mapa : haga clic en los botones verdes con una cruz de color negro para hacer un zoom, en el botón verde con un guión para alejar o en las flechas verdes para mapas adyacentes.


METAR-TAF: